sensor_id;sensor_type;location;lat;lon;timestamp;P1;durP1;ratioP1;P2;durP2;ratioP2
22144;SDS011;11238;48.730;11.566;2022-09-09T00:01:59;5.93;;;2.70;;
22144;SDS011;11238;48.730;11.566;2022-09-09T00:04:30;6.55;;;2.90;;
22144;SDS011;11238;48.730;11.566;2022-09-09T00:12:39;6.82;;;2.65;;
22144;SDS011;11238;48.730;11.566;2022-09-09T00:15:27;6.78;;;2.85;;
22144;SDS011;11238;48.730;11.566;2022-09-09T00:21:02;5.18;;;2.70;;
22144;SDS011;11238;48.730;11.566;2022-09-09T00:23:34;2.72;;;2.50;;
22144;SDS011;11238;48.730;11.566;2022-09-09T00:31:40;4.05;;;2.70;;
22144;SDS011;11238;48.730;11.566;2022-09-09T00:34:10;5.00;;;2.42;;
22144;SDS011;11238;48.730;11.566;2022-09-09T00:36:44;3.63;;;2.70;;
22144;SDS011;11238;48.730;11.566;2022-09-09T00:39:57;3.15;;;2.70;;
22144;SDS011;11238;48.730;11.566;2022-09-09T00:44:35;3.97;;;2.75;;
22144;SDS011;11238;48.730;11.566;2022-09-09T00:50:00;6.85;;;2.70;;
22144;SDS011;11238;48.730;11.566;2022-09-09T00:58:02;2.95;;;2.65;;
22144;SDS011;11238;48.730;11.566;2022-09-09T01:00:30;3.60;;;2.80;;
22144;SDS011;11238;48.730;11.566;2022-09-09T01:10:50;5.38;;;2.63;;
22144;SDS011;11238;48.730;11.566;2022-09-09T01:13:26;4.70;;;2.70;;
22144;SDS011;11238;48.730;11.566;2022-09-09T01:18:29;5.32;;;2.50;;
22144;SDS011;11238;48.730;11.566;2022-09-09T01:27:05;6.13;;;2.33;;
22144;SDS011;11238;48.730;11.566;2022-09-09T01:29:32;5.70;;;2.70;;
22144;SDS011;11238;48.730;11.566;2022-09-09T01:32:02;7.05;;;2.63;;
22144;SDS011;11238;48.730;11.566;2022-09-09T01:34:48;4.47;;;2.67;;
22144;SDS011;11238;48.730;11.566;2022-09-09T01:37:15;5.97;;;2.67;;
22144;SDS011;11238;48.730;11.566;2022-09-09T01:39:42;3.88;;;2.10;;
22144;SDS011;11238;48.730;11.566;2022-09-09T01:42:13;5.60;;;2.50;;
22144;SDS011;11238;48.730;11.566;2022-09-09T01:44:41;2.72;;;2.35;;
22144;SDS011;11238;48.730;11.566;2022-09-09T01:47:07;4.80;;;2.70;;
22144;SDS011;11238;48.730;11.566;2022-09-09T01:49:40;5.13;;;2.92;;
22144;SDS011;11238;48.730;11.566;2022-09-09T01:52:16;2.90;;;2.70;;
22144;SDS011;11238;48.730;11.566;2022-09-09T01:54:42;6.60;;;2.67;;
22144;SDS011;11238;48.730;11.566;2022-09-09T01:57:33;6.60;;;2.42;;
22144;SDS011;11238;48.730;11.566;2022-09-09T02:00:06;8.15;;;2.90;;
22144;SDS011;11238;48.730;11.566;2022-09-09T02:03:00;5.88;;;2.65;;
22144;SDS011;11238;48.730;11.566;2022-09-09T02:05:50;8.80;;;2.50;;
22144;SDS011;11238;48.730;11.566;2022-09-09T02:08:48;7.47;;;3.10;;
22144;SDS011;11238;48.730;11.566;2022-09-09T02:11:17;6.57;;;2.70;;
22144;SDS011;11238;48.730;11.566;2022-09-09T02:14:13;2.70;;;2.50;;
22144;SDS011;11238;48.730;11.566;2022-09-09T02:16:53;3.30;;;2.50;;
22144;SDS011;11238;48.730;11.566;2022-09-09T02:19:56;6.00;;;2.70;;
22144;SDS011;11238;48.730;11.566;2022-09-09T02:22:38;5.80;;;2.65;;
22144;SDS011;11238;48.730;11.566;2022-09-09T02:25:10;4.45;;;2.75;;
22144;SDS011;11238;48.730;11.566;2022-09-09T02:27:41;3.65;;;2.80;;
22144;SDS011;11238;48.730;11.566;2022-09-09T02:30:11;7.95;;;2.90;;
22144;SDS011;11238;48.730;11.566;2022-09-09T02:32:42;4.85;;;2.90;;
22144;SDS011;11238;48.730;11.566;2022-09-09T02:35:13;3.22;;;2.67;;
22144;SDS011;11238;48.730;11.566;2022-09-09T02:37:42;4.05;;;2.88;;
22144;SDS011;11238;48.730;11.566;2022-09-09T02:40:12;4.22;;;2.80;;
22144;SDS011;11238;48.730;11.566;2022-09-09T02:42:45;8.23;;;3.33;;
22144;SDS011;11238;48.730;11.566;2022-09-09T02:45:14;9.55;;;2.75;;
22144;SDS011;11238;48.730;11.566;2022-09-09T02:50:33;4.30;;;2.65;;
22144;SDS011;11238;48.730;11.566;2022-09-09T02:53:16;5.63;;;2.70;;
22144;SDS011;11238;48.730;11.566;2022-09-09T02:55:47;5.80;;;2.70;;
22144;SDS011;11238;48.730;11.566;2022-09-09T02:58:21;3.65;;;2.42;;
22144;SDS011;11238;48.730;11.566;2022-09-09T03:00:59;3.45;;;2.47;;
22144;SDS011;11238;48.730;11.566;2022-09-09T03:03:29;7.63;;;3.85;;
22144;SDS011;11238;48.730;11.566;2022-09-09T03:05:56;7.97;;;2.72;;
22144;SDS011;11238;48.730;11.566;2022-09-09T03:08:22;4.43;;;2.90;;
22144;SDS011;11238;48.730;11.566;2022-09-09T03:10:49;6.25;;;2.70;;
22144;SDS011;11238;48.730;11.566;2022-09-09T03:13:15;3.30;;;2.45;;
22144;SDS011;11238;48.730;11.566;2022-09-09T03:15:41;5.15;;;2.70;;
22144;SDS011;11238;48.730;11.566;2022-09-09T03:18:12;8.90;;;3.00;;
22144;SDS011;11238;48.730;11.566;2022-09-09T03:20:38;4.45;;;2.90;;
22144;SDS011;11238;48.730;11.566;2022-09-09T03:23:04;8.07;;;3.15;;
22144;SDS011;11238;48.730;11.566;2022-09-09T03:25:30;5.07;;;2.83;;
22144;SDS011;11238;48.730;11.566;2022-09-09T03:27:58;5.88;;;2.85;;
22144;SDS011;11238;48.730;11.566;2022-09-09T03:30:25;3.50;;;2.70;;
22144;SDS011;11238;48.730;11.566;2022-09-09T03:32:54;8.93;;;2.75;;
22144;SDS011;11238;48.730;11.566;2022-09-09T03:35:23;5.50;;;2.45;;
22144;SDS011;11238;48.730;11.566;2022-09-09T03:37:49;8.82;;;2.88;;
22144;SDS011;11238;48.730;11.566;2022-09-09T03:40:16;4.18;;;2.72;;
22144;SDS011;11238;48.730;11.566;2022-09-09T03:42:44;6.97;;;2.75;;
22144;SDS011;11238;48.730;11.566;2022-09-09T03:45:10;3.17;;;2.80;;
22144;SDS011;11238;48.730;11.566;2022-09-09T03:47:38;4.50;;;3.15;;
22144;SDS011;11238;48.730;11.566;2022-09-09T03:50:06;7.45;;;3.50;;
22144;SDS011;11238;48.730;11.566;2022-09-09T03:52:35;6.55;;;3.08;;
22144;SDS011;11238;48.730;11.566;2022-09-09T03:55:03;6.32;;;3.10;;
22144;SDS011;11238;48.730;11.566;2022-09-09T03:57:30;4.88;;;3.00;;
22144;SDS011;11238;48.730;11.566;2022-09-09T03:59:57;5.32;;;3.28;;
22144;SDS011;11238;48.730;11.566;2022-09-09T04:02:31;5.35;;;3.30;;
22144;SDS011;11238;48.730;11.566;2022-09-09T04:04:57;4.43;;;2.95;;
22144;SDS011;11238;48.730;11.566;2022-09-09T04:07:23;3.20;;;2.60;;
22144;SDS011;11238;48.730;11.566;2022-09-09T04:09:49;4.72;;;2.85;;
22144;SDS011;11238;48.730;11.566;2022-09-09T04:12:15;6.35;;;2.88;;
22144;SDS011;11238;48.730;11.566;2022-09-09T04:14:42;4.03;;;2.83;;
22144;SDS011;11238;48.730;11.566;2022-09-09T04:17:08;7.82;;;3.00;;
22144;SDS011;11238;48.730;11.566;2022-09-09T04:19:36;8.52;;;3.15;;
22144;SDS011;11238;48.730;11.566;2022-09-09T04:22:02;3.47;;;3.03;;
22144;SDS011;11238;48.730;11.566;2022-09-09T04:24:28;6.03;;;3.33;;
22144;SDS011;11238;48.730;11.566;2022-09-09T04:26:55;4.30;;;3.00;;
22144;SDS011;11238;48.730;11.566;2022-09-09T04:29:21;4.78;;;3.00;;
22144;SDS011;11238;48.730;11.566;2022-09-09T04:31:47;4.53;;;3.30;;
22144;SDS011;11238;48.730;11.566;2022-09-09T04:34:13;5.65;;;3.20;;
22144;SDS011;11238;48.730;11.566;2022-09-09T04:36:39;4.70;;;3.00;;
22144;SDS011;11238;48.730;11.566;2022-09-09T04:39:05;5.82;;;2.85;;
22144;SDS011;11238;48.730;11.566;2022-09-09T04:41:32;4.28;;;3.13;;
22144;SDS011;11238;48.730;11.566;2022-09-09T04:43:58;5.43;;;2.80;;
22144;SDS011;11238;48.730;11.566;2022-09-09T04:46:26;4.53;;;2.67;;
22144;SDS011;11238;48.730;11.566;2022-09-09T04:48:52;5.07;;;2.78;;
22144;SDS011;11238;48.730;11.566;2022-09-09T04:51:19;4.75;;;2.83;;
22144;SDS011;11238;48.730;11.566;2022-09-09T04:53:47;5.97;;;2.67;;
22144;SDS011;11238;48.730;11.566;2022-09-09T04:56:15;5.18;;;2.38;;
22144;SDS011;11238;48.730;11.566;2022-09-09T04:58:47;4.80;;;2.50;;
22144;SDS011;11238;48.730;11.566;2022-09-09T05:01:18;3.70;;;2.45;;
22144;SDS011;11238;48.730;11.566;2022-09-09T05:03:45;2.80;;;2.42;;
22144;SDS011;11238;48.730;11.566;2022-09-09T05:06:18;3.60;;;2.65;;
22144;SDS011;11238;48.730;11.566;2022-09-09T05:08:48;8.50;;;3.20;;
22144;SDS011;11238;48.730;11.566;2022-09-09T05:11:27;3.47;;;2.53;;
22144;SDS011;11238;48.730;11.566;2022-09-09T05:13:59;2.67;;;2.47;;
22144;SDS011;11238;48.730;11.566;2022-09-09T05:16:28;3.90;;;2.88;;
22144;SDS011;11238;48.730;11.566;2022-09-09T05:18:54;4.55;;;2.70;;
22144;SDS011;11238;48.730;11.566;2022-09-09T05:21:21;5.93;;;2.30;;
22144;SDS011;11238;48.730;11.566;2022-09-09T05:23:48;4.32;;;2.53;;
22144;SDS011;11238;48.730;11.566;2022-09-09T05:26:18;3.97;;;2.63;;
22144;SDS011;11238;48.730;11.566;2022-09-09T05:28:47;4.55;;;3.03;;
22144;SDS011;11238;48.730;11.566;2022-09-09T05:31:14;8.25;;;2.75;;
22144;SDS011;11238;48.730;11.566;2022-09-09T05:33:44;3.28;;;2.97;;
22144;SDS011;11238;48.730;11.566;2022-09-09T05:36:16;4.68;;;2.85;;
22144;SDS011;11238;48.730;11.566;2022-09-09T05:38:46;2.92;;;2.50;;
22144;SDS011;11238;48.730;11.566;2022-09-09T05:41:13;6.78;;;2.90;;
22144;SDS011;11238;48.730;11.566;2022-09-09T05:43:43;3.80;;;2.63;;
22144;SDS011;11238;48.730;11.566;2022-09-09T05:46:11;5.85;;;3.42;;
22144;SDS011;11238;48.730;11.566;2022-09-09T05:48:50;4.28;;;2.60;;
22144;SDS011;11238;48.730;11.566;2022-09-09T05:51:19;4.82;;;3.08;;
22144;SDS011;11238;48.730;11.566;2022-09-09T05:53:47;5.97;;;3.40;;
22144;SDS011;11238;48.730;11.566;2022-09-09T05:56:14;6.63;;;3.47;;
22144;SDS011;11238;48.730;11.566;2022-09-09T05:58:42;5.30;;;3.67;;
22144;SDS011;11238;48.730;11.566;2022-09-09T06:01:12;3.83;;;3.45;;
22144;SDS011;11238;48.730;11.566;2022-09-09T06:03:41;6.22;;;3.22;;
22144;SDS011;11238;48.730;11.566;2022-09-09T06:06:19;5.00;;;3.92;;
22144;SDS011;11238;48.730;11.566;2022-09-09T06:08:50;3.90;;;3.03;;
22144;SDS011;11238;48.730;11.566;2022-09-09T06:11:23;4.07;;;3.63;;
22144;SDS011;11238;48.730;11.566;2022-09-09T06:13:50;5.00;;;3.65;;
22144;SDS011;11238;48.730;11.566;2022-09-09T06:16:19;3.55;;;3.13;;
22144;SDS011;11238;48.730;11.566;2022-09-09T06:18:49;8.10;;;3.40;;
22144;SDS011;11238;48.730;11.566;2022-09-09T06:21:20;4.68;;;3.35;;
22144;SDS011;11238;48.730;11.566;2022-09-09T06:23:48;3.50;;;3.20;;
22144;SDS011;11238;48.730;11.566;2022-09-09T06:26:15;5.15;;;3.40;;
22144;SDS011;11238;48.730;11.566;2022-09-09T06:28:44;3.17;;;2.97;;
22144;SDS011;11238;48.730;11.566;2022-09-09T06:31:12;4.25;;;3.05;;
22144;SDS011;11238;48.730;11.566;2022-09-09T06:33:41;6.22;;;3.22;;
22144;SDS011;11238;48.730;11.566;2022-09-09T06:36:13;5.38;;;3.20;;
22144;SDS011;11238;48.730;11.566;2022-09-09T06:38:41;6.85;;;3.33;;
22144;SDS011;11238;48.730;11.566;2022-09-09T06:41:09;9.02;;;3.70;;
22144;SDS011;11238;48.730;11.566;2022-09-09T06:43:36;3.80;;;3.45;;
22144;SDS011;11238;48.730;11.566;2022-09-09T06:46:08;7.80;;;3.92;;
22144;SDS011;11238;48.730;11.566;2022-09-09T06:48:38;12.25;;;5.15;;
22144;SDS011;11238;48.730;11.566;2022-09-09T06:53:40;14.02;;;7.10;;
22144;SDS011;11238;48.730;11.566;2022-09-09T06:59:00;15.15;;;6.63;;
22144;SDS011;11238;48.730;11.566;2022-09-09T07:01:31;14.25;;;6.97;;
22144;SDS011;11238;48.730;11.566;2022-09-09T07:04:01;17.50;;;8.07;;
22144;SDS011;11238;48.730;11.566;2022-09-09T07:06:34;16.38;;;6.82;;
22144;SDS011;11238;48.730;11.566;2022-09-09T07:09:03;11.40;;;5.88;;
22144;SDS011;11238;48.730;11.566;2022-09-09T07:11:32;11.70;;;6.25;;
22144;SDS011;11238;48.730;11.566;2022-09-09T07:14:04;9.35;;;6.18;;
22144;SDS011;11238;48.730;11.566;2022-09-09T07:16:29;10.60;;;5.95;;
22144;SDS011;11238;48.730;11.566;2022-09-09T07:18:59;8.85;;;6.03;;
22144;SDS011;11238;48.730;11.566;2022-09-09T07:21:27;9.73;;;5.95;;
22144;SDS011;11238;48.730;11.566;2022-09-09T07:23:54;10.25;;;5.63;;
22144;SDS011;11238;48.730;11.566;2022-09-09T07:26:22;9.10;;;5.85;;
22144;SDS011;11238;48.730;11.566;2022-09-09T07:28:52;11.73;;;6.20;;
22144;SDS011;11238;48.730;11.566;2022-09-09T07:31:22;7.88;;;5.10;;
22144;SDS011;11238;48.730;11.566;2022-09-09T07:33:50;11.35;;;5.50;;
22144;SDS011;11238;48.730;11.566;2022-09-09T07:36:26;5.47;;;4.88;;
22144;SDS011;11238;48.730;11.566;2022-09-09T07:38:55;9.60;;;5.10;;
22144;SDS011;11238;48.730;11.566;2022-09-09T07:41:25;10.02;;;4.30;;
22144;SDS011;11238;48.730;11.566;2022-09-09T07:43:53;8.10;;;4.70;;
22144;SDS011;11238;48.730;11.566;2022-09-09T07:46:20;6.10;;;3.90;;
22144;SDS011;11238;48.730;11.566;2022-09-09T07:48:51;9.48;;;4.32;;
22144;SDS011;11238;48.730;11.566;2022-09-09T07:51:23;8.40;;;3.88;;
22144;SDS011;11238;48.730;11.566;2022-09-09T07:53:59;7.93;;;3.90;;
22144;SDS011;11238;48.730;11.566;2022-09-09T07:56:28;4.75;;;2.90;;
22144;SDS011;11238;48.730;11.566;2022-09-09T07:58:55;7.15;;;3.83;;
22144;SDS011;11238;48.730;11.566;2022-09-09T08:01:29;6.57;;;3.72;;
22144;SDS011;11238;48.730;11.566;2022-09-09T08:04:01;4.38;;;3.58;;
22144;SDS011;11238;48.730;11.566;2022-09-09T08:06:34;6.90;;;3.92;;
22144;SDS011;11238;48.730;11.566;2022-09-09T08:09:03;5.63;;;3.97;;
22144;SDS011;11238;48.730;11.566;2022-09-09T08:11:31;7.93;;;4.68;;
22144;SDS011;11238;48.730;11.566;2022-09-09T08:13:59;6.85;;;4.30;;
22144;SDS011;11238;48.730;11.566;2022-09-09T08:16:27;5.88;;;4.43;;
22144;SDS011;11238;48.730;11.566;2022-09-09T08:18:56;9.55;;;4.20;;
22144;SDS011;11238;48.730;11.566;2022-09-09T08:21:24;5.28;;;4.07;;
22144;SDS011;11238;48.730;11.566;2022-09-09T08:23:56;6.45;;;3.97;;
22144;SDS011;11238;48.730;11.566;2022-09-09T08:26:24;5.03;;;3.78;;
22144;SDS011;11238;48.730;11.566;2022-09-09T08:28:56;7.13;;;3.78;;
22144;SDS011;11238;48.730;11.566;2022-09-09T08:33:53;8.57;;;4.20;;
22144;SDS011;11238;48.730;11.566;2022-09-09T08:36:22;8.55;;;4.00;;
22144;SDS011;11238;48.730;11.566;2022-09-09T08:38:53;7.50;;;4.35;;
22144;SDS011;11238;48.730;11.566;2022-09-09T08:44:30;5.85;;;3.58;;
22144;SDS011;11238;48.730;11.566;2022-09-09T08:47:18;6.50;;;3.47;;
22144;SDS011;11238;48.730;11.566;2022-09-09T08:52:32;5.35;;;3.40;;
22144;SDS011;11238;48.730;11.566;2022-09-09T09:00:52;4.45;;;2.60;;
22144;SDS011;11238;48.730;11.566;2022-09-09T09:06:26;3.15;;;2.22;;
22144;SDS011;11238;48.730;11.566;2022-09-09T09:09:01;3.80;;;1.90;;
22144;SDS011;11238;48.730;11.566;2022-09-09T09:11:35;3.05;;;1.70;;
22144;SDS011;11238;48.730;11.566;2022-09-09T09:14:09;2.92;;;1.52;;
22144;SDS011;11238;48.730;11.566;2022-09-09T09:16:53;5.35;;;1.50;;
22144;SDS011;11238;48.730;11.566;2022-09-09T09:19:28;4.97;;;2.00;;
22144;SDS011;11238;48.730;11.566;2022-09-09T09:21:58;4.07;;;1.63;;
22144;SDS011;11238;48.730;11.566;2022-09-09T09:27:32;3.03;;;1.45;;
22144;SDS011;11238;48.730;11.566;2022-09-09T09:30:10;5.32;;;2.10;;
22144;SDS011;11238;48.730;11.566;2022-09-09T09:32:38;3.58;;;1.65;;
22144;SDS011;11238;48.730;11.566;2022-09-09T09:35:09;4.47;;;1.48;;
22144;SDS011;11238;48.730;11.566;2022-09-09T09:37:37;3.22;;;1.55;;
22144;SDS011;11238;48.730;11.566;2022-09-09T09:42:37;4.72;;;1.70;;
22144;SDS011;11238;48.730;11.566;2022-09-09T09:45:16;5.20;;;1.50;;
22144;SDS011;11238;48.730;11.566;2022-09-09T09:48:03;4.57;;;1.60;;
22144;SDS011;11238;48.730;11.566;2022-09-09T09:50:32;3.00;;;1.70;;
22144;SDS011;11238;48.730;11.566;2022-09-09T09:52:59;2.25;;;1.50;;
22144;SDS011;11238;48.730;11.566;2022-09-09T09:55:31;2.83;;;1.52;;
22144;SDS011;11238;48.730;11.566;2022-09-09T09:58:03;2.42;;;1.52;;
22144;SDS011;11238;48.730;11.566;2022-09-09T10:00:32;2.63;;;1.55;;
22144;SDS011;11238;48.730;11.566;2022-09-09T10:03:13;2.97;;;1.50;;
22144;SDS011;11238;48.730;11.566;2022-09-09T10:05:52;3.88;;;1.70;;
22144;SDS011;11238;48.730;11.566;2022-09-09T10:08:19;3.15;;;1.45;;
22144;SDS011;11238;48.730;11.566;2022-09-09T10:18:50;2.63;;;1.00;;
22144;SDS011;11238;48.730;11.566;2022-09-09T10:25:22;2.22;;;0.85;;
22144;SDS011;11238;48.730;11.566;2022-09-09T10:33:42;1.30;;;0.90;;
22144;SDS011;11238;48.730;11.566;2022-09-09T10:36:35;2.20;;;0.88;;
22144;SDS011;11238;48.730;11.566;2022-09-09T10:39:24;1.85;;;0.80;;
22144;SDS011;11238;48.730;11.566;2022-09-09T10:42:07;1.45;;;0.80;;
22144;SDS011;11238;48.730;11.566;2022-09-09T10:44:47;1.40;;;0.90;;
22144;SDS011;11238;48.730;11.566;2022-09-09T10:55:40;1.83;;;0.73;;
22144;SDS011;11238;48.730;11.566;2022-09-09T10:58:10;1.75;;;0.88;;
22144;SDS011;11238;48.730;11.566;2022-09-09T11:00:56;1.55;;;0.73;;
22144;SDS011;11238;48.730;11.566;2022-09-09T11:03:28;2.25;;;0.90;;
22144;SDS011;11238;48.730;11.566;2022-09-09T11:06:00;1.38;;;0.70;;
22144;SDS011;11238;48.730;11.566;2022-09-09T11:08:30;1.90;;;0.73;;
22144;SDS011;11238;48.730;11.566;2022-09-09T11:11:17;0.82;;;0.60;;
22144;SDS011;11238;48.730;11.566;2022-09-09T11:21:45;0.85;;;0.70;;
22144;SDS011;11238;48.730;11.566;2022-09-09T11:24:29;1.85;;;0.73;;
22144;SDS011;11238;48.730;11.566;2022-09-09T11:27:09;3.25;;;0.80;;
22144;SDS011;11238;48.730;11.566;2022-09-09T11:38:06;2.10;;;0.85;;
22144;SDS011;11238;48.730;11.566;2022-09-09T11:40:36;2.33;;;1.00;;
22144;SDS011;11238;48.730;11.566;2022-09-09T11:43:10;1.63;;;0.70;;
22144;SDS011;11238;48.730;11.566;2022-09-09T11:45:39;1.67;;;0.90;;
22144;SDS011;11238;48.730;11.566;2022-09-09T11:48:22;1.50;;;1.10;;
22144;SDS011;11238;48.730;11.566;2022-09-09T11:51:03;1.25;;;0.80;;
22144;SDS011;11238;48.730;11.566;2022-09-09T11:53:30;3.33;;;0.88;;
22144;SDS011;11238;48.730;11.566;2022-09-09T11:56:04;2.92;;;0.98;;
22144;SDS011;11238;48.730;11.566;2022-09-09T11:58:55;2.85;;;0.95;;
22144;SDS011;11238;48.730;11.566;2022-09-09T12:01:37;2.38;;;1.00;;
22144;SDS011;11238;48.730;11.566;2022-09-09T12:09:29;3.25;;;1.20;;
22144;SDS011;11238;48.730;11.566;2022-09-09T12:14:43;4.25;;;1.10;;
22144;SDS011;11238;48.730;11.566;2022-09-09T12:17:10;1.85;;;1.00;;
22144;SDS011;11238;48.730;11.566;2022-09-09T12:19:44;4.45;;;1.27;;
22144;SDS011;11238;48.730;11.566;2022-09-09T12:22:22;3.58;;;0.90;;
22144;SDS011;11238;48.730;11.566;2022-09-09T12:27:45;1.83;;;0.95;;
22144;SDS011;11238;48.730;11.566;2022-09-09T12:31:00;2.58;;;0.95;;
22144;SDS011;11238;48.730;11.566;2022-09-09T12:33:21;2.35;;;0.93;;
22144;SDS011;11238;48.730;11.566;2022-09-09T12:35:53;3.13;;;1.23;;
22144;SDS011;11238;48.730;11.566;2022-09-09T12:38:43;4.95;;;1.40;;
22144;SDS011;11238;48.730;11.566;2022-09-09T12:41:19;1.75;;;0.95;;
22144;SDS011;11238;48.730;11.566;2022-09-09T12:43:47;2.35;;;1.10;;
22144;SDS011;11238;48.730;11.566;2022-09-09T12:46:17;2.17;;;1.00;;
22144;SDS011;11238;48.730;11.566;2022-09-09T12:48:47;5.10;;;1.30;;
22144;SDS011;11238;48.730;11.566;2022-09-09T12:51:21;4.20;;;1.23;;
22144;SDS011;11238;48.730;11.566;2022-09-09T12:53:52;2.60;;;1.00;;
22144;SDS011;11238;48.730;11.566;2022-09-09T12:56:19;3.20;;;0.90;;
22144;SDS011;11238;48.730;11.566;2022-09-09T12:58:47;3.78;;;1.17;;
22144;SDS011;11238;48.730;11.566;2022-09-09T13:01:23;3.10;;;1.00;;
22144;SDS011;11238;48.730;11.566;2022-09-09T13:03:51;4.80;;;0.93;;
22144;SDS011;11238;48.730;11.566;2022-09-09T13:06:22;2.08;;;1.13;;
22144;SDS011;11238;48.730;11.566;2022-09-09T13:08:53;1.85;;;1.10;;
22144;SDS011;11238;48.730;11.566;2022-09-09T13:11:22;1.80;;;1.00;;
22144;SDS011;11238;48.730;11.566;2022-09-09T13:13:56;3.00;;;1.00;;
22144;SDS011;11238;48.730;11.566;2022-09-09T13:16:27;2.75;;;1.00;;
22144;SDS011;11238;48.730;11.566;2022-09-09T13:18:58;5.45;;;1.08;;
22144;SDS011;11238;48.730;11.566;2022-09-09T13:21:33;3.33;;;1.20;;
22144;SDS011;11238;48.730;11.566;2022-09-09T13:24:01;3.72;;;1.00;;
22144;SDS011;11238;48.730;11.566;2022-09-09T13:26:28;2.85;;;0.93;;
22144;SDS011;11238;48.730;11.566;2022-09-09T13:28:55;7.43;;;1.00;;
22144;SDS011;11238;48.730;11.566;2022-09-09T13:31:40;4.60;;;1.20;;
22144;SDS011;11238;48.730;11.566;2022-09-09T13:36:39;2.95;;;1.00;;
22144;SDS011;11238;48.730;11.566;2022-09-09T13:39:13;4.03;;;0.93;;
22144;SDS011;11238;48.730;11.566;2022-09-09T13:41:43;2.58;;;0.90;;
22144;SDS011;11238;48.730;11.566;2022-09-09T13:49:45;1.33;;;0.77;;
22144;SDS011;11238;48.730;11.566;2022-09-09T13:52:13;3.15;;;0.90;;
22144;SDS011;11238;48.730;11.566;2022-09-09T13:54:42;2.40;;;0.77;;
22144;SDS011;11238;48.730;11.566;2022-09-09T13:57:14;3.88;;;0.98;;
22144;SDS011;11238;48.730;11.566;2022-09-09T13:59:45;4.45;;;1.00;;
22144;SDS011;11238;48.730;11.566;2022-09-09T14:02:12;2.15;;;0.98;;
22144;SDS011;11238;48.730;11.566;2022-09-09T14:04:38;2.42;;;0.80;;
22144;SDS011;11238;48.730;11.566;2022-09-09T14:07:07;3.05;;;0.93;;
22144;SDS011;11238;48.730;11.566;2022-09-09T14:09:39;4.35;;;0.95;;
22144;SDS011;11238;48.730;11.566;2022-09-09T14:12:08;3.72;;;0.80;;
22144;SDS011;11238;48.730;11.566;2022-09-09T14:14:39;1.77;;;0.75;;
22144;SDS011;11238;48.730;11.566;2022-09-09T14:17:05;3.05;;;0.80;;
22144;SDS011;11238;48.730;11.566;2022-09-09T14:19:32;3.25;;;0.95;;
22144;SDS011;11238;48.730;11.566;2022-09-09T14:21:57;4.13;;;0.90;;
22144;SDS011;11238;48.730;11.566;2022-09-09T14:24:23;4.32;;;0.70;;
22144;SDS011;11238;48.730;11.566;2022-09-09T14:26:50;3.95;;;0.70;;
22144;SDS011;11238;48.730;11.566;2022-09-09T14:29:16;2.45;;;0.77;;
22144;SDS011;11238;48.730;11.566;2022-09-09T14:31:42;1.95;;;0.60;;
22144;SDS011;11238;48.730;11.566;2022-09-09T14:34:08;2.97;;;0.70;;
22144;SDS011;11238;48.730;11.566;2022-09-09T14:36:34;2.70;;;0.80;;
22144;SDS011;11238;48.730;11.566;2022-09-09T14:39:00;4.60;;;0.80;;
22144;SDS011;11238;48.730;11.566;2022-09-09T14:41:27;3.70;;;0.88;;
22144;SDS011;11238;48.730;11.566;2022-09-09T14:43:55;2.50;;;0.80;;
22144;SDS011;11238;48.730;11.566;2022-09-09T14:46:21;2.25;;;0.80;;
22144;SDS011;11238;48.730;11.566;2022-09-09T14:48:47;1.50;;;0.80;;
22144;SDS011;11238;48.730;11.566;2022-09-09T14:51:17;3.40;;;0.82;;
22144;SDS011;11238;48.730;11.566;2022-09-09T14:53:46;4.15;;;1.10;;
22144;SDS011;11238;48.730;11.566;2022-09-09T14:56:16;4.60;;;0.80;;
22144;SDS011;11238;48.730;11.566;2022-09-09T14:58:43;2.85;;;0.80;;
22144;SDS011;11238;48.730;11.566;2022-09-09T15:01:14;2.55;;;0.88;;
22144;SDS011;11238;48.730;11.566;2022-09-09T15:03:42;1.83;;;0.60;;
22144;SDS011;11238;48.730;11.566;2022-09-09T15:06:14;3.13;;;0.90;;
22144;SDS011;11238;48.730;11.566;2022-09-09T15:08:42;3.35;;;0.75;;
22144;SDS011;11238;48.730;11.566;2022-09-09T15:11:09;4.10;;;0.80;;
22144;SDS011;11238;48.730;11.566;2022-09-09T15:13:36;1.52;;;0.85;;
22144;SDS011;11238;48.730;11.566;2022-09-09T15:16:05;4.63;;;0.75;;
22144;SDS011;11238;48.730;11.566;2022-09-09T15:18:35;2.55;;;0.80;;
22144;SDS011;11238;48.730;11.566;2022-09-09T15:21:02;4.90;;;0.80;;
22144;SDS011;11238;48.730;11.566;2022-09-09T15:23:33;1.80;;;0.80;;
22144;SDS011;11238;48.730;11.566;2022-09-09T15:26:02;3.53;;;1.00;;
22144;SDS011;11238;48.730;11.566;2022-09-09T15:28:28;3.00;;;0.98;;
22144;SDS011;11238;48.730;11.566;2022-09-09T15:30:56;2.78;;;0.85;;
22144;SDS011;11238;48.730;11.566;2022-09-09T15:33:22;4.90;;;1.10;;
22144;SDS011;11238;48.730;11.566;2022-09-09T15:35:48;2.60;;;0.80;;
22144;SDS011;11238;48.730;11.566;2022-09-09T15:38:15;3.35;;;1.00;;
22144;SDS011;11238;48.730;11.566;2022-09-09T15:40:42;2.88;;;0.90;;
22144;SDS011;11238;48.730;11.566;2022-09-09T15:43:09;6.80;;;1.10;;
22144;SDS011;11238;48.730;11.566;2022-09-09T15:45:35;3.08;;;1.08;;
22144;SDS011;11238;48.730;11.566;2022-09-09T15:48:02;2.97;;;0.90;;
22144;SDS011;11238;48.730;11.566;2022-09-09T15:50:29;5.35;;;1.00;;
22144;SDS011;11238;48.730;11.566;2022-09-09T15:52:58;3.70;;;3.00;;
22144;SDS011;11238;48.730;11.566;2022-09-09T15:55:24;3.40;;;0.90;;
22144;SDS011;11238;48.730;11.566;2022-09-09T15:57:51;2.13;;;0.88;;
22144;SDS011;11238;48.730;11.566;2022-09-09T16:00:20;3.85;;;1.08;;
22144;SDS011;11238;48.730;11.566;2022-09-09T16:02:47;3.33;;;1.17;;
22144;SDS011;11238;48.730;11.566;2022-09-09T16:05:13;5.38;;;1.10;;
22144;SDS011;11238;48.730;11.566;2022-09-09T16:07:39;1.90;;;0.80;;
22144;SDS011;11238;48.730;11.566;2022-09-09T16:10:07;3.38;;;0.70;;
22144;SDS011;11238;48.730;11.566;2022-09-09T16:12:33;2.67;;;0.70;;
22144;SDS011;11238;48.730;11.566;2022-09-09T16:14:59;1.90;;;0.60;;
22144;SDS011;11238;48.730;11.566;2022-09-09T16:17:25;1.35;;;0.50;;
22144;SDS011;11238;48.730;11.566;2022-09-09T16:19:52;1.35;;;0.47;;
22144;SDS011;11238;48.730;11.566;2022-09-09T16:22:19;1.15;;;0.60;;
22144;SDS011;11238;48.730;11.566;2022-09-09T16:24:45;1.95;;;0.40;;
22144;SDS011;11238;48.730;11.566;2022-09-09T16:27:10;1.75;;;0.70;;
22144;SDS011;11238;48.730;11.566;2022-09-09T16:29:36;1.52;;;0.60;;
22144;SDS011;11238;48.730;11.566;2022-09-09T16:32:03;1.33;;;0.45;;
22144;SDS011;11238;48.730;11.566;2022-09-09T16:34:29;1.13;;;0.60;;
22144;SDS011;11238;48.730;11.566;2022-09-09T16:36:55;0.60;;;0.40;;
22144;SDS011;11238;48.730;11.566;2022-09-09T16:39:21;2.45;;;0.60;;
22144;SDS011;11238;48.730;11.566;2022-09-09T16:41:47;0.98;;;0.50;;
22144;SDS011;11238;48.730;11.566;2022-09-09T16:44:14;1.50;;;0.47;;
22144;SDS011;11238;48.730;11.566;2022-09-09T16:46:46;1.48;;;0.60;;
22144;SDS011;11238;48.730;11.566;2022-09-09T16:49:13;1.42;;;0.40;;
22144;SDS011;11238;48.730;11.566;2022-09-09T16:51:48;1.38;;;0.40;;
22144;SDS011;11238;48.730;11.566;2022-09-09T16:54:18;0.85;;;0.40;;
22144;SDS011;11238;48.730;11.566;2022-09-09T16:56:46;1.83;;;0.50;;
22144;SDS011;11238;48.730;11.566;2022-09-09T16:59:13;3.08;;;0.80;;
22144;SDS011;11238;48.730;11.566;2022-09-09T17:01:44;1.80;;;0.60;;
22144;SDS011;11238;48.730;11.566;2022-09-09T17:04:12;1.50;;;0.57;;
22144;SDS011;11238;48.730;11.566;2022-09-09T17:06:41;2.55;;;0.70;;
22144;SDS011;11238;48.730;11.566;2022-09-09T17:09:10;3.05;;;0.57;;